createdAt,value
2023-04-08T00:00:52.155Z,10.33
2023-04-08T00:04:54.011Z,9.97
2023-04-08T00:08:55.961Z,9.80
2023-04-08T00:12:57.759Z,9.20
2023-04-08T00:16:59.666Z,9.23
2023-04-08T00:21:01.439Z,9.70
2023-04-08T00:25:06.670Z,8.57
2023-04-08T00:29:08.478Z,8.27
2023-04-08T00:33:10.273Z,8.20
2023-04-08T00:37:12.192Z,7.67
2023-04-08T00:41:14.022Z,7.70
2023-04-08T00:45:17.061Z,7.60
2023-04-08T00:49:18.795Z,9.00
2023-04-08T00:53:20.744Z,8.07
2023-04-08T00:57:22.508Z,8.60
2023-04-08T01:01:43.969Z,6.97
2023-04-08T01:06:10.736Z,8.03
2023-04-08T01:10:22.908Z,7.90
2023-04-08T01:14:26.600Z,7.50
2023-04-08T01:18:28.469Z,7.10
2023-04-08T01:22:54.904Z,7.33
2023-04-08T01:26:57.426Z,8.43
2023-04-08T01:30:59.965Z,7.67
2023-04-08T01:35:01.900Z,7.60
2023-04-08T01:39:04.132Z,7.90
2023-04-08T01:43:06.716Z,8.40
2023-04-08T01:47:09.465Z,7.77
2023-04-08T01:51:11.156Z,16.00
2023-04-08T01:55:12.956Z,8.00
2023-04-08T01:59:15.867Z,8.20
2023-04-08T02:03:19.279Z,7.47
2023-04-08T02:07:21.484Z,7.13
2023-04-08T02:11:23.554Z,6.97
2023-04-08T02:15:25.320Z,7.57
2023-04-08T02:19:31.293Z,6.97
2023-04-08T02:23:33.307Z,8.20
2023-04-08T02:27:35.471Z,7.40
2023-04-08T02:31:37.309Z,7.30
2023-04-08T02:35:39.365Z,7.17
2023-04-08T02:39:41.167Z,6.70
2023-04-08T02:43:43.115Z,6.93
2023-04-08T02:47:44.977Z,6.37
2023-04-08T02:51:46.710Z,6.33
2023-04-08T02:55:48.471Z,6.13
2023-04-08T02:59:50.181Z,6.50
2023-04-08T03:03:51.973Z,6.03
2023-04-08T03:07:53.826Z,5.93
2023-04-08T03:11:55.716Z,6.13
2023-04-08T03:15:57.658Z,6.47
2023-04-08T03:19:59.471Z,5.80
2023-04-08T03:24:01.226Z,5.67
2023-04-08T03:28:02.929Z,5.63
2023-04-08T03:32:05.050Z,5.17
2023-04-08T03:36:07.355Z,5.43
2023-04-08T03:40:09.780Z,5.60
2023-04-08T03:44:11.626Z,5.07
2023-04-08T03:48:13.396Z,4.93
2023-04-08T03:52:15.175Z,4.73
2023-04-08T03:56:16.883Z,4.17
2023-04-08T04:00:18.621Z,3.77
2023-04-08T04:04:20.861Z,4.33
2023-04-08T04:08:22.878Z,4.37
2023-04-08T04:12:24.677Z,4.70
2023-04-08T04:16:32.298Z,4.60
2023-04-08T04:20:34.745Z,4.60
2023-04-08T04:24:36.529Z,5.00
2023-04-08T04:28:38.640Z,4.50
2023-04-08T04:32:40.606Z,5.17
2023-04-08T04:36:42.528Z,5.40
2023-04-08T04:40:44.395Z,5.17
2023-04-08T04:44:46.336Z,5.03
2023-04-08T04:48:48.185Z,5.53
2023-04-08T04:52:50.061Z,5.17
2023-04-08T04:56:51.837Z,4.80
2023-04-08T05:00:53.618Z,4.50
2023-04-08T05:04:55.937Z,4.03
2023-04-08T05:09:00.717Z,4.37
2023-04-08T05:13:02.427Z,3.67
2023-04-08T05:17:05.822Z,3.90
2023-04-08T05:21:07.573Z,4.00
2023-04-08T05:25:09.692Z,3.77
2023-04-08T05:29:11.458Z,3.87
2023-04-08T05:33:13.170Z,5.40
2023-04-08T05:37:14.930Z,4.80
2023-04-08T05:41:16.859Z,4.83
2023-04-08T05:45:18.808Z,4.97
2023-04-08T05:49:20.609Z,4.90
2023-04-08T05:53:22.377Z,5.40
2023-04-08T05:57:24.125Z,5.60
2023-04-08T06:01:26.372Z,5.57
2023-04-08T06:05:28.159Z,5.43
2023-04-08T06:09:29.967Z,5.70
2023-04-08T06:13:32.215Z,6.20
2023-04-08T06:17:36.634Z,5.43
2023-04-08T06:21:38.586Z,6.23
2023-04-08T06:25:40.400Z,6.57
2023-04-08T06:29:43.046Z,6.13
2023-04-08T06:33:45.517Z,6.57
2023-04-08T06:37:48.554Z,7.10
2023-04-08T06:41:52.338Z,6.30
2023-04-08T06:45:54.356Z,8.30
2023-04-08T06:49:56.254Z,7.50
2023-04-08T06:53:57.972Z,9.40
2023-04-08T06:57:59.760Z,9.13
2023-04-08T07:02:01.836Z,10.33
2023-04-08T07:06:06.865Z,10.67
2023-04-08T07:10:11.075Z,10.77
2023-04-08T07:14:13.128Z,10.63
2023-04-08T07:18:14.972Z,11.27
2023-04-08T07:22:17.319Z,10.30
2023-04-08T07:26:19.268Z,11.27
2023-04-08T07:30:21.158Z,11.17
2023-04-08T07:34:22.971Z,11.27
2023-04-08T07:38:32.287Z,11.40
2023-04-08T07:42:34.018Z,11.00
2023-04-08T07:46:39.361Z,9.90
2023-04-08T07:51:08.196Z,11.30
2023-04-08T07:55:03.199Z,11.03
2023-04-08T07:59:05.263Z,9.70
2023-04-08T08:03:07.186Z,8.10
2023-04-08T08:07:08.967Z,6.50
2023-04-08T08:11:10.828Z,5.93
2023-04-08T08:15:14.887Z,5.90
2023-04-08T08:19:16.875Z,4.43
2023-04-08T08:23:18.599Z,5.93
2023-04-08T08:27:20.393Z,5.10
2023-04-08T08:31:22.129Z,5.00
2023-04-08T08:35:23.807Z,5.20
2023-04-08T08:39:25.906Z,6.67
2023-04-08T08:43:28.081Z,6.33
2023-04-08T08:47:32.961Z,5.00
2023-04-08T08:51:35.165Z,4.80
2023-04-08T08:55:59.974Z,5.07
2023-04-08T09:00:00.437Z,6.00
2023-04-08T09:04:19.992Z,6.00
2023-04-08T09:08:37.756Z,6.33
2023-04-08T09:12:53.943Z,7.03
2023-04-08T09:16:55.705Z,6.57
2023-04-08T09:20:57.552Z,7.40
2023-04-08T09:24:59.293Z,6.87
2023-04-08T09:29:23.996Z,7.17
2023-04-08T09:33:35.966Z,7.10
2023-04-08T09:37:37.830Z,6.57
2023-04-08T09:41:42.037Z,7.83
2023-04-08T09:45:43.938Z,7.57
2023-04-08T09:50:17.791Z,6.53
2023-04-08T09:54:23.202Z,6.97
2023-04-08T09:58:52.350Z,6.97
2023-04-08T10:03:00.139Z,7.50
2023-04-08T10:07:04.991Z,7.20
2023-04-08T10:11:07.393Z,7.47
2023-04-08T10:15:31.106Z,7.37
2023-04-08T10:19:54.910Z,8.93
2023-04-08T10:24:04.104Z,8.40
2023-04-08T10:28:15.290Z,8.07
2023-04-08T10:32:41.606Z,6.80
2023-04-08T10:36:44.343Z,7.30
2023-04-08T10:40:47.130Z,7.20
2023-04-08T10:44:51.460Z,7.45
2023-04-08T10:49:02.518Z,7.10
2023-04-08T10:53:04.339Z,7.10
2023-04-08T10:57:09.816Z,6.90
2023-04-08T11:01:14.332Z,6.87
2023-04-08T11:05:16.358Z,7.00
2023-04-08T11:09:18.120Z,6.70
2023-04-08T11:13:20.043Z,7.63
2023-04-08T11:17:21.730Z,7.17
2023-04-08T11:21:24.036Z,8.07
2023-04-08T11:25:26.504Z,8.30
2023-04-08T11:29:29.214Z,8.70
2023-04-08T11:33:35.193Z,10.27
2023-04-08T11:37:45.584Z,9.97
2023-04-08T11:41:47.345Z,11.57
2023-04-08T11:45:49.213Z,12.43
2023-04-08T11:49:51.463Z,12.60
2023-04-08T11:53:59.102Z,13.73
2023-04-08T11:58:05.174Z,12.20
2023-04-08T12:02:07.062Z,12.00
2023-04-08T12:06:09.684Z,12.23
2023-04-08T12:10:11.635Z,12.50
2023-04-08T12:14:13.492Z,12.90
2023-04-08T12:18:22.697Z,13.07
2023-04-08T12:22:34.280Z,14.80
2023-04-08T12:26:36.445Z,14.03
2023-04-08T12:30:38.287Z,12.90
2023-04-08T12:34:42.573Z,13.63
2023-04-08T12:38:46.843Z,14.03
2023-04-08T12:42:51.033Z,15.00
2023-04-08T12:46:57.992Z,14.27
2023-04-08T12:51:04.335Z,14.93
2023-04-08T12:55:07.519Z,14.10
2023-04-08T12:59:09.432Z,15.43
2023-04-08T13:03:19.013Z,14.83
2023-04-08T13:07:22.144Z,14.27
2023-04-08T13:11:24.091Z,15.53
2023-04-08T13:15:36.928Z,14.53
2023-04-08T13:19:41.124Z,13.73
2023-04-08T13:23:43.257Z,13.80
2023-04-08T13:27:48.862Z,12.83
2023-04-08T13:31:54.211Z,12.67
2023-04-08T13:36:04.146Z,14.77
2023-04-08T13:40:12.415Z,13.80
2023-04-08T13:44:25.079Z,14.20
2023-04-08T13:48:29.427Z,12.97
2023-04-08T13:52:32.645Z,12.63
2023-04-08T13:56:34.595Z,12.37
2023-04-08T14:00:47.561Z,12.50
2023-04-08T14:04:56.682Z,11.60
2023-04-08T14:08:58.672Z,10.37
2023-04-08T14:13:00.689Z,11.57
2023-04-08T14:17:02.674Z,11.50
2023-04-08T14:21:05.506Z,11.97
2023-04-08T14:25:07.605Z,11.97
2023-04-08T14:29:09.337Z,10.93
2023-04-08T14:33:11.537Z,10.60
2023-04-08T14:37:13.381Z,10.87
2023-04-08T14:41:15.176Z,10.67
2023-04-08T14:45:17.239Z,10.87
2023-04-08T14:49:19.062Z,10.67
2023-04-08T14:53:20.944Z,10.63
2023-04-08T14:57:25.697Z,10.93
2023-04-08T15:01:28.988Z,10.30
2023-04-08T15:05:31.333Z,9.03
2023-04-08T15:09:33.263Z,9.23
2023-04-08T15:13:37.815Z,9.97
2023-04-08T15:17:39.617Z,9.57
2023-04-08T15:21:41.392Z,10.20
2023-04-08T15:25:43.143Z,9.97
2023-04-08T15:29:44.887Z,9.00
2023-04-08T15:33:48.333Z,9.43
2023-04-08T15:37:50.678Z,9.87
2023-04-08T15:41:52.698Z,9.77
2023-04-08T15:45:54.489Z,9.47
2023-04-08T15:49:57.830Z,11.33
2023-04-08T15:53:59.748Z,11.50
2023-04-08T15:58:01.855Z,11.73
2023-04-08T16:02:03.888Z,11.60
2023-04-08T16:06:06.291Z,11.40
2023-04-08T16:10:08.613Z,12.10
2023-04-08T16:14:19.020Z,13.20
2023-04-08T16:18:20.852Z,12.30
2023-04-08T16:22:22.817Z,11.97
2023-04-08T16:26:34.350Z,11.73
2023-04-08T16:30:39.068Z,12.43
2023-04-08T16:34:43.405Z,11.87
2023-04-08T16:38:45.441Z,11.83
2023-04-08T16:42:47.987Z,11.93
2023-04-08T16:46:49.960Z,12.23
2023-04-08T16:50:59.690Z,11.77
2023-04-08T16:55:07.520Z,11.87
2023-04-08T16:59:09.312Z,12.87
2023-04-08T17:03:17.028Z,12.03
2023-04-08T17:07:19.122Z,12.20
2023-04-08T17:11:23.665Z,12.90
2023-04-08T17:15:25.737Z,12.80
2023-04-08T17:19:27.529Z,11.20
2023-04-08T17:23:29.342Z,12.07
2023-04-08T17:27:31.252Z,12.33
2023-04-08T17:31:33.428Z,13.17
2023-04-08T17:35:35.963Z,12.67
2023-04-08T17:39:41.214Z,14.27
2023-04-08T17:43:43.390Z,14.70
2023-04-08T17:47:45.589Z,13.87
2023-04-08T17:51:47.424Z,14.07
2023-04-08T17:55:49.154Z,11.87
2023-04-08T17:59:51.558Z,12.43
2023-04-08T18:03:53.437Z,11.43
2023-04-08T18:07:55.588Z,12.60
2023-04-08T18:12:06.194Z,12.70
2023-04-08T18:16:18.346Z,11.30
2023-04-08T18:20:20.367Z,11.53
2023-04-08T18:24:22.276Z,11.27
2023-04-08T18:28:24.086Z,12.20
2023-04-08T18:32:25.894Z,11.80
2023-04-08T18:36:28.499Z,11.70
2023-04-08T18:40:34.303Z,14.27
2023-04-08T18:44:36.061Z,13.80
2023-04-08T18:48:50.202Z,13.63
2023-04-08T18:52:55.423Z,13.67
2023-04-08T18:56:59.601Z,12.97
2023-04-08T19:01:04.651Z,13.27
2023-04-08T19:05:07.583Z,12.60
2023-04-08T19:09:10.961Z,12.40
2023-04-08T19:13:15.833Z,13.10
2023-04-08T19:17:17.823Z,12.80
2023-04-08T19:21:20.171Z,12.90
2023-04-08T19:25:21.985Z,12.43
2023-04-08T19:29:24.594Z,12.87
2023-04-08T19:33:28.505Z,14.07
2023-04-08T19:37:30.531Z,14.10
2023-04-08T19:41:32.489Z,13.43
2023-04-08T19:45:34.497Z,13.67
2023-04-08T19:49:38.709Z,14.10
2023-04-08T19:53:43.703Z,14.83
2023-04-08T19:57:46.735Z,13.77
2023-04-08T20:01:54.298Z,14.43
2023-04-08T20:05:56.426Z,15.20
2023-04-08T20:10:01.255Z,14.13
2023-04-08T20:14:06.420Z,12.73
2023-04-08T20:18:14.086Z,14.57
2023-04-08T20:22:21.003Z,12.63
2023-04-08T20:26:22.792Z,14.03
2023-04-08T20:30:24.792Z,14.67
2023-04-08T20:34:26.629Z,13.87
2023-04-08T20:38:28.483Z,14.37
2023-04-08T20:42:30.235Z,15.00
2023-04-08T20:46:32.155Z,13.73
2023-04-08T20:50:34.111Z,14.57
2023-04-08T20:54:35.942Z,17.23
2023-04-08T20:58:37.625Z,19.67
2023-04-08T21:02:40.379Z,18.17
2023-04-08T21:06:42.395Z,16.50
2023-04-08T21:10:44.173Z,15.83
2023-04-08T21:14:46.130Z,15.70
2023-04-08T21:18:50.604Z,15.53
2023-04-08T21:22:53.929Z,16.20
2023-04-08T21:26:56.662Z,17.40
2023-04-08T21:31:08.535Z,15.93
2023-04-08T21:35:10.591Z,15.57
2023-04-08T21:39:12.401Z,17.43
2023-04-08T21:43:14.237Z,16.43
2023-04-08T21:47:16.370Z,15.33
2023-04-08T21:51:20.573Z,16.80
2023-04-08T21:55:22.482Z,15.40
2023-04-08T21:59:24.390Z,14.57
2023-04-08T22:03:26.630Z,15.97
2023-04-08T22:07:28.457Z,14.03
2023-04-08T22:11:33.082Z,15.37
2023-04-08T22:15:34.802Z,15.10
2023-04-08T22:19:36.535Z,14.60
2023-04-08T22:23:41.347Z,14.50
2023-04-08T22:27:43.051Z,16.57
2023-04-08T22:31:44.867Z,14.77
2023-04-08T22:35:47.996Z,15.17
2023-04-08T22:39:49.796Z,15.83
2023-04-08T22:43:51.611Z,16.27
2023-04-08T22:47:54.494Z,16.67
2023-04-08T22:51:56.275Z,17.43
2023-04-08T22:55:58.197Z,16.17
2023-04-08T23:00:01.080Z,17.80
2023-04-08T23:04:04.116Z,18.87
2023-04-08T23:08:06.330Z,17.30
2023-04-08T23:12:08.133Z,19.03
2023-04-08T23:16:10.415Z,18.40
2023-04-08T23:20:12.745Z,18.80
2023-04-08T23:24:15.067Z,18.63
2023-04-08T23:28:16.821Z,19.50
2023-04-08T23:32:18.479Z,18.17
2023-04-08T23:36:20.306Z,17.37
2023-04-08T23:40:22.091Z,17.07
2023-04-08T23:44:23.776Z,16.77
2023-04-08T23:48:25.833Z,16.80
2023-04-08T23:52:27.510Z,17.63
2023-04-08T23:56:29.322Z,17.63
